首页
METAR-TAF:

METAR-TAF

机场 :

安曼民航機場

安曼, 约旦

纬度: 31-59N, 经度: 035-59E, 海拔: 767米

当前天气观测

该预报发布于46分钟前的20:00 UTC
风速5节,风向
温度 27°C
湿度 30%
气压 1013 hPa
能見度: 6000

METAR: OJAM 062000Z 35005KT 6000 NSC 27/08 Q1013 NOSIG

时间: 23:46 (20:46 UTC)

预报

该预报发布于4小时和26分钟前的16:20 UTC
预报有效从06日的 18点(UTC)到 07日的 24点(UTC)
风速4节,风向西
能見度: 6000
成为
从 07日的 03点(UTC)到 07日的 05点(UTC)
风速10节,风向西转西北
能見度: 5000
几率 30%
从 07日的 12点(UTC)到 07日的 18点(UTC)
风速14节,风向西转西北
能見度: 4000
浮尘

TAF: OJAM 061620Z 0618/0724 26004KT 6000 NSC BECMG 0703/0705 29010KT 5000 HZ NSC PROB30 0712/0718 30014KT 4000 DU

超过4000个机场的气象观测和天气预报(METAR&TAF报告)。

可查询的气象台以黄色和红色小点在地图上表示。

将鼠标移到小点上方,可查看气象台名称。

然后点击查看天气观测和预报。

如需切换地图:点击带黑十字的绿色按钮放大地图;点击带横线的绿色按钮缩小地图;或者点击绿色箭头查看邻近地区的地图。


METAR-TAF: